Time;durP1;ratioP1;P1;durP2;ratioP2;P2;SDS_P1;SDS_P2;PMS_P1;PMS_P2;Temp;Humidity;BMP_temperature;BMP_pressure;BME280_temperature;BME280_humidity;BME280_pressure;Samples;Min_cycle;Max_cycle;Signal;HPM_P1;HPM_P2
2022/04/13 00:01:30;;;;;;;32.15;6.43;;;;;;;;;;4907447;29;20483;-73
2022/04/13 00:03:56;;;;;;;23.90;6.65;;;;;;;;;;4911638;29;20446;-71
2022/04/13 00:06:22;;;;;;;25.45;6.65;;;;;;;;;;4908498;29;20486;-71
2022/04/13 00:08:50;;;;;;;27.85;6.32;;;;;;;;;;4909606;29;20040;-72
2022/04/13 00:11:17;;;;;;;30.52;6.82;;;;;;;;;;4911069;29;20056;-71
2022/04/13 00:13:43;;;;;;;26.10;7.00;;;;;;;;;;4911560;29;20087;-70
2022/04/13 00:16:09;;;;;;;26.17;6.82;;;;;;;;;;4910605;29;20099;-71
2022/04/13 00:18:36;;;;;;;30.70;7.55;;;;;;;;;;4912233;29;20147;-71
2022/04/13 00:21:02;;;;;;;25.08;7.30;;;;;;;;;;4915283;29;20487;-69
2022/04/13 00:23:31;;;;;;;19.48;6.07;;;;;;;;;;4914967;29;20479;-69
2022/04/13 00:26:00;;;;;;;30.30;6.35;;;;;;;;;;4905356;29;20182;-70
2022/04/13 00:28:26;;;;;;;37.45;7.30;;;;;;;;;;4887334;29;20313;-71
2022/04/13 00:30:52;;;;;;;21.15;6.43;;;;;;;;;;4914863;29;20048;-73
2022/04/13 00:33:18;;;;;;;28.98;6.55;;;;;;;;;;4900552;29;20470;-71
2022/04/13 00:35:43;;;;;;;19.17;5.60;;;;;;;;;;4913313;29;20103;-71
2022/04/13 00:38:09;;;;;;;25.20;6.10;;;;;;;;;;4914559;29;20055;-72
2022/04/13 00:40:42;;;;;;;24.80;5.82;;;;;;;;;;4909135;29;20048;-71
2022/04/13 00:43:08;;;;;;;26.90;7.20;;;;;;;;;;4911940;29;20056;-71
2022/04/13 00:45:34;;;;;;;28.73;6.30;;;;;;;;;;4915398;29;20430;-71
2022/04/13 00:48:02;;;;;;;31.63;6.10;;;;;;;;;;4912592;29;20075;-70
2022/04/13 00:50:28;;;;;;;27.70;6.03;;;;;;;;;;4905790;29;20467;-70
2022/04/13 00:52:58;;;;;;;23.52;5.45;;;;;;;;;;4909487;29;20521;-71
2022/04/13 00:55:26;;;;;;;34.65;6.55;;;;;;;;;;4908298;29;20100;-73
2022/04/13 00:57:54;;;;;;;25.85;6.38;;;;;;;;;;4905415;29;20040;-70
2022/04/13 01:00:20;;;;;;;31.77;6.55;;;;;;;;;;4909088;29;20044;-71
2022/04/13 01:02:46;;;;;;;28.67;6.28;;;;;;;;;;4905623;29;20127;-70
2022/04/13 01:05:12;;;;;;;24.05;6.00;;;;;;;;;;4912067;29;20550;-71
2022/04/13 01:07:40;;;;;;;22.40;5.20;;;;;;;;;;4908653;29;20491;-72
2022/04/13 01:10:07;;;;;;;20.13;5.40;;;;;;;;;;4909785;29;20056;-70
2022/04/13 01:12:34;;;;;;;25.90;5.95;;;;;;;;;;4910597;29;20445;-70
2022/04/13 01:15:00;;;;;;;26.75;5.90;;;;;;;;;;4910377;29;20044;-71
2022/04/13 01:17:27;;;;;;;19.45;5.22;;;;;;;;;;4909872;29;20047;-72
2022/04/13 01:19:54;;;;;;;26.60;5.97;;;;;;;;;;4906326;29;20171;-70
2022/04/13 01:22:21;;;;;;;22.88;5.57;;;;;;;;;;4909977;29;20135;-70
2022/04/13 01:24:48;;;;;;;25.58;6.65;;;;;;;;;;4911438;29;20111;-72
2022/04/13 01:27:14;;;;;;;25.83;6.63;;;;;;;;;;4910616;29;20053;-70
2022/04/13 01:29:45;;;;;;;22.33;5.57;;;;;;;;;;4909790;29;20172;-71
2022/04/13 01:32:12;;;;;;;29.05;5.97;;;;;;;;;;4910764;29;20790;-69
2022/04/13 01:34:45;;;;;;;23.02;5.80;;;;;;;;;;4911495;29;20103;-70
2022/04/13 01:37:11;;;;;;;25.67;6.13;;;;;;;;;;4915172;29;20409;-71
2022/04/13 01:39:36;;;;;;;24.58;6.47;;;;;;;;;;4916120;29;20044;-72
2022/04/13 01:42:12;;;;;;;27.25;6.38;;;;;;;;;;4916132;29;20135;-69
2022/04/13 01:44:41;;;;;;;24.45;6.15;;;;;;;;;;4914695;29;20151;-69
2022/04/13 01:47:07;;;;;;;22.58;5.60;;;;;;;;;;4913959;29;20052;-70
2022/04/13 01:49:33;;;;;;;24.20;6.13;;;;;;;;;;4914255;29;20059;-72
2022/04/13 01:51:59;;;;;;;20.13;6.10;;;;;;;;;;4915332;29;20060;-73
2022/04/13 01:54:25;;;;;;;23.65;5.93;;;;;;;;;;4914914;29;20052;-70
2022/04/13 01:56:51;;;;;;;22.45;5.60;;;;;;;;;;4915340;29;20048;-71
2022/04/13 01:59:17;;;;;;;22.88;6.00;;;;;;;;;;4909550;29;20048;-70
2022/04/13 02:01:43;;;;;;;23.80;6.13;;;;;;;;;;4914939;29;20037;-71
2022/04/13 02:04:21;;;;;;;24.92;5.90;;;;;;;;;;4901966;29;20133;-71
2022/04/13 02:06:48;;;;;;;21.63;6.10;;;;;;;;;;4914886;29;20143;-69
2022/04/13 02:09:15;;;;;;;25.15;6.45;;;;;;;;;;4911839;29;20560;-70
2022/04/13 02:11:41;;;;;;;22.98;7.05;;;;;;;;;;4913638;29;20490;-70
2022/04/13 02:14:08;;;;;;;23.90;6.43;;;;;;;;;;4913001;29;20044;-69
2022/04/13 02:16:34;;;;;;;21.65;6.22;;;;;;;;;;4912939;29;20103;-72
2022/04/13 02:19:00;;;;;;;22.65;7.13;;;;;;;;;;4913122;29;20754;-73
2022/04/13 02:21:27;;;;;;;29.98;7.32;;;;;;;;;;4919919;29;20054;-72
2022/04/13 02:23:52;;;;;;;25.33;6.90;;;;;;;;;;4914877;29;20048;-70
2022/04/13 02:26:19;;;;;;;25.05;7.15;;;;;;;;;;4908172;29;20254;-71
2022/04/13 02:28:46;;;;;;;24.83;6.53;;;;;;;;;;4911464;29;20047;-72
2022/04/13 02:31:12;;;;;;;30.52;6.68;;;;;;;;;;4911120;29;20044;-71
2022/04/13 02:33:39;;;;;;;23.45;6.45;;;;;;;;;;4912663;29;20112;-71
2022/04/13 02:36:08;;;;;;;24.80;7.00;;;;;;;;;;4910987;29;20405;-71
2022/04/13 02:38:33;;;;;;;25.55;7.30;;;;;;;;;;4913556;29;20120;-70
2022/04/13 02:40:59;;;;;;;22.73;6.57;;;;;;;;;;4913635;29;20486;-71
2022/04/13 02:43:29;;;;;;;26.92;6.57;;;;;;;;;;4911643;29;20040;-72
2022/04/13 02:45:58;;;;;;;24.48;7.72;;;;;;;;;;4909811;29;20475;-70
2022/04/13 02:48:25;;;;;;;21.50;6.22;;;;;;;;;;4913713;29;20074;-71
2022/04/13 02:50:52;;;;;;;22.45;6.95;;;;;;;;;;4913752;29;20048;-71
2022/04/13 02:53:18;;;;;;;20.58;6.25;;;;;;;;;;4912394;29;20239;-71
2022/04/13 02:55:44;;;;;;;27.77;7.40;;;;;;;;;;4913473;29;20047;-71
2022/04/13 02:58:10;;;;;;;23.00;6.47;;;;;;;;;;4912614;29;20074;-71
2022/04/13 03:00:36;;;;;;;21.67;6.97;;;;;;;;;;4910722;29;20458;-71
2022/04/13 03:03:05;;;;;;;26.75;7.40;;;;;;;;;;4906232;29;20055;-72
2022/04/13 03:05:31;;;;;;;23.33;6.28;;;;;;;;;;4912036;29;20581;-72
2022/04/13 03:07:57;;;;;;;23.13;7.07;;;;;;;;;;4911554;29;20048;-69
2022/04/13 03:10:23;;;;;;;20.00;6.28;;;;;;;;;;4913165;29;20398;-72
2022/04/13 03:12:49;;;;;;;20.95;6.50;;;;;;;;;;4896713;29;20115;-70
2022/04/13 03:15:15;;;;;;;24.90;6.72;;;;;;;;;;4914316;29;20052;-70
2022/04/13 03:17:41;;;;;;;18.27;6.22;;;;;;;;;;4914397;29;20056;-70
2022/04/13 03:20:09;;;;;;;25.30;7.20;;;;;;;;;;4913795;29;20056;-68
2022/04/13 03:22:35;;;;;;;19.73;5.70;;;;;;;;;;4912283;29;20517;-71
2022/04/13 03:25:02;;;;;;;23.42;6.20;;;;;;;;;;4910414;29;20048;-71
2022/04/13 03:27:28;;;;;;;21.48;6.07;;;;;;;;;;4910555;29;20099;-70
2022/04/13 03:29:54;;;;;;;27.55;7.75;;;;;;;;;;4912790;29;20048;-69
2022/04/13 03:32:20;;;;;;;26.33;6.68;;;;;;;;;;4895910;29;20119;-70
2022/04/13 03:34:46;;;;;;;23.20;7.38;;;;;;;;;;4911019;29;20687;-70
2022/04/13 03:37:11;;;;;;;23.45;7.07;;;;;;;;;;4911562;29;20048;-69
2022/04/13 03:39:37;;;;;;;35.08;8.25;;;;;;;;;;4910346;29;20055;-69
2022/04/13 03:42:04;;;;;;;23.20;8.07;;;;;;;;;;4909431;29;20446;-71
2022/04/13 03:44:49;;;;;;;21.65;8.10;;;;;;;;;;4901294;29;20056;-71
2022/04/13 03:47:15;;;;;;;21.58;7.78;;;;;;;;;;4907414;29;20047;-70
2022/04/13 03:49:41;;;;;;;25.60;8.45;;;;;;;;;;4911442;29;20052;-70
2022/04/13 03:52:07;;;;;;;29.08;8.70;;;;;;;;;;4910099;29;20064;-71
2022/04/13 03:54:33;;;;;;;27.40;9.35;;;;;;;;;;4910500;29;20044;-71
2022/04/13 03:56:59;;;;;;;28.88;9.38;;;;;;;;;;4909488;29;20044;-70
2022/04/13 03:59:26;;;;;;;25.48;9.10;;;;;;;;;;4908084;29;20115;-69
2022/04/13 04:01:53;;;;;;;29.95;10.02;;;;;;;;;;4905456;29;20151;-70
2022/04/13 04:04:19;;;;;;;26.05;9.35;;;;;;;;;;4909562;29;20066;-70
2022/04/13 04:06:45;;;;;;;31.35;9.43;;;;;;;;;;4911949;29;20048;-71
2022/04/13 04:09:11;;;;;;;34.15;10.40;;;;;;;;;;4905472;29;20414;-70
2022/04/13 04:11:37;;;;;;;25.60;10.02;;;;;;;;;;4903905;29;20048;-69
2022/04/13 04:14:03;;;;;;;31.90;11.38;;;;;;;;;;4912250;29;20103;-71
2022/04/13 04:16:29;;;;;;;30.95;10.13;;;;;;;;;;4906063;29;20921;-70
2022/04/13 04:18:54;;;;;;;29.10;10.65;;;;;;;;;;4909382;29;20048;-70
2022/04/13 04:21:20;;;;;;;34.53;10.52;;;;;;;;;;4909308;29;20063;-72
2022/04/13 04:23:46;;;;;;;33.42;11.00;;;;;;;;;;4909806;29;20040;-71
2022/04/13 04:26:12;;;;;;;32.80;11.85;;;;;;;;;;4910482;29;20417;-72
2022/04/13 04:28:38;;;;;;;31.48;11.98;;;;;;;;;;4913305;29;20044;-71
2022/04/13 04:31:04;;;;;;;37.30;11.57;;;;;;;;;;4911167;29;20052;-72
2022/04/13 04:33:30;;;;;;;30.20;11.45;;;;;;;;;;4911811;29;20106;-72
2022/04/13 04:35:56;;;;;;;29.00;11.00;;;;;;;;;;4891981;29;20075;-72
2022/04/13 04:38:23;;;;;;;31.08;11.55;;;;;;;;;;4912455;29;20040;-72
2022/04/13 04:40:49;;;;;;;33.53;11.80;;;;;;;;;;4907399;29;20498;-70
2022/04/13 04:43:15;;;;;;;34.97;11.95;;;;;;;;;;4875127;29;20847;-71
2022/04/13 04:45:41;;;;;;;28.75;10.60;;;;;;;;;;4898264;29;20052;-71
2022/04/13 04:48:07;;;;;;;26.52;10.75;;;;;;;;;;4902236;29;20494;-71
2022/04/13 04:50:34;;;;;;;29.23;11.35;;;;;;;;;;4902838;29;20120;-72
2022/04/13 04:53:00;;;;;;;27.45;12.52;;;;;;;;;;4904324;29;20455;-71
2022/04/13 04:55:26;;;;;;;38.80;12.18;;;;;;;;;;4905529;29;20099;-71
2022/04/13 04:57:52;;;;;;;29.02;12.00;;;;;;;;;;4908061;29;20072;-74
2022/04/13 05:00:20;;;;;;;32.00;12.07;;;;;;;;;;4906213;29;20052;-72
2022/04/13 05:02:48;;;;;;;25.63;11.07;;;;;;;;;;4905237;29;20044;-72
2022/04/13 05:05:14;;;;;;;27.98;11.75;;;;;;;;;;4903860;29;20055;-72
2022/04/13 05:07:40;;;;;;;35.58;11.82;;;;;;;;;;4904550;29;20513;-73
2022/04/13 05:10:07;;;;;;;28.23;11.95;;;;;;;;;;4903377;29;20044;-71
2022/04/13 05:12:49;;;;;;;32.97;12.50;;;;;;;;;;4907741;29;20078;-71
2022/04/13 05:15:16;;;;;;;31.30;13.13;;;;;;;;;;4907785;29;20090;-72
2022/04/13 05:17:42;;;;;;;30.48;12.50;;;;;;;;;;4904777;29;20059;-76
2022/04/13 05:20:09;;;;;;;33.33;12.82;;;;;;;;;;4907027;29;20044;-71
2022/04/13 05:22:35;;;;;;;31.23;11.77;;;;;;;;;;4905478;29;20048;-73
2022/04/13 05:25:06;;;;;;;25.98;11.35;;;;;;;;;;4908194;29;20051;-73
2022/04/13 05:27:32;;;;;;;31.98;11.90;;;;;;;;;;4903422;29;20310;-72
2022/04/13 05:29:58;;;;;;;34.33;13.15;;;;;;;;;;4908603;29;20062;-72
2022/04/13 05:32:24;;;;;;;34.45;12.77;;;;;;;;;;4907854;29;20048;-72
2022/04/13 05:34:57;;;;;;;31.63;13.48;;;;;;;;;;4887418;29;20052;-72
2022/04/13 05:37:23;;;;;;;35.72;13.52;;;;;;;;;;4906282;29;20123;-72
2022/04/13 05:39:49;;;;;;;29.30;12.55;;;;;;;;;;4908288;29;20052;-72
2022/04/13 05:42:15;;;;;;;29.20;11.75;;;;;;;;;;4906449;29;20056;-73
2022/04/13 05:44:41;;;;;;;34.42;12.90;;;;;;;;;;4907806;29;20052;-73
2022/04/13 05:47:07;;;;;;;33.40;12.63;;;;;;;;;;4908669;29;20048;-73
2022/04/13 05:49:33;;;;;;;36.55;13.23;;;;;;;;;;4910208;29;20379;-73
2022/04/13 05:51:59;;;;;;;27.42;13.35;;;;;;;;;;4911380;29;20048;-72
2022/04/13 05:54:25;;;;;;;44.70;13.30;;;;;;;;;;4907801;29;20143;-74
2022/04/13 05:56:50;;;;;;;30.55;11.80;;;;;;;;;;4905770;29;20060;-74
2022/04/13 05:59:16;;;;;;;31.58;12.63;;;;;;;;;;4906686;29;21274;-72
2022/04/13 06:01:42;;;;;;;31.20;13.07;;;;;;;;;;4905182;29;20478;-75
2022/04/13 06:04:08;;;;;;;36.03;12.38;;;;;;;;;;4908801;29;20059;-73
2022/04/13 06:06:34;;;;;;;35.08;12.23;;;;;;;;;;4907090;29;20517;-70
2022/04/13 06:09:00;;;;;;;32.78;12.20;;;;;;;;;;4908404;29;20055;-73
2022/04/13 06:11:25;;;;;;;32.70;12.10;;;;;;;;;;4906764;29;20586;-72
2022/04/13 06:13:52;;;;;;;33.85;12.18;;;;;;;;;;4908022;29;20064;-73
2022/04/13 06:16:17;;;;;;;35.85;12.20;;;;;;;;;;4906760;29;20052;-72
2022/04/13 06:18:43;;;;;;;32.17;12.00;;;;;;;;;;4888031;29;20422;-72
2022/04/13 06:21:09;;;;;;;32.22;11.40;;;;;;;;;;4907380;29;20071;-72
2022/04/13 06:23:35;;;;;;;35.97;12.45;;;;;;;;;;4908296;29;20060;-73
2022/04/13 06:26:01;;;;;;;30.80;11.55;;;;;;;;;;4908071;29;20045;-72
2022/04/13 06:28:27;;;;;;;29.48;11.43;;;;;;;;;;4907370;29;20217;-75
2022/04/13 06:30:53;;;;;;;28.50;10.75;;;;;;;;;;4907042;29;20582;-75
2022/04/13 06:33:19;;;;;;;29.88;11.25;;;;;;;;;;4906963;29;20313;-81
2022/04/13 06:35:46;;;;;;;32.67;10.52;;;;;;;;;;4908579;29;20118;-70
2022/04/13 06:38:12;;;;;;;32.55;10.50;;;;;;;;;;4901310;29;20052;-74
2022/04/13 06:40:38;;;;;;;34.17;10.32;;;;;;;;;;4902302;29;20055;-73
2022/04/13 06:43:04;;;;;;;29.88;10.13;;;;;;;;;;4911386;29;20044;-71
2022/04/13 06:45:30;;;;;;;31.15;10.15;;;;;;;;;;4909274;29;20546;-72
2022/04/13 06:47:55;;;;;;;25.75;9.68;;;;;;;;;;4910652;29;20039;-77
2022/04/13 06:50:21;;;;;;;22.35;9.98;;;;;;;;;;4913988;29;20055;-77
2022/04/13 06:52:47;;;;;;;24.02;10.75;;;;;;;;;;4911650;29;20591;-74
2022/04/13 06:55:13;;;;;;;33.97;11.98;;;;;;;;;;4912411;29;20044;-76
2022/04/13 06:57:39;;;;;;;29.92;13.90;;;;;;;;;;4913496;29;20055;-75
2022/04/13 07:00:08;;;;;;;36.00;14.90;;;;;;;;;;4920793;29;20115;-77
2022/04/13 07:02:38;;;;;;;43.22;16.17;;;;;;;;;;4922493;29;20048;-76
2022/04/13 07:05:05;;;;;;;38.90;17.50;;;;;;;;;;4915786;29;20047;-75
2022/04/13 07:07:31;;;;;;;44.40;18.15;;;;;;;;;;4914783;29;20502;-76
2022/04/13 07:09:58;;;;;;;40.58;18.20;;;;;;;;;;4902465;29;20487;-75
2022/04/13 07:12:24;;;;;;;37.67;18.33;;;;;;;;;;4913439;29;20573;-74
2022/04/13 07:14:50;;;;;;;36.33;18.40;;;;;;;;;;4913227;29;20241;-74
2022/04/13 07:17:17;;;;;;;39.60;18.13;;;;;;;;;;4912442;29;20039;-77
2022/04/13 07:19:43;;;;;;;37.70;19.13;;;;;;;;;;4913310;29;20105;-75
2022/04/13 07:22:09;;;;;;;37.58;18.40;;;;;;;;;;4913448;29;20083;-77
2022/04/13 07:24:35;;;;;;;44.47;18.33;;;;;;;;;;4913450;29;20051;-75
2022/04/13 07:27:01;;;;;;;37.72;16.98;;;;;;;;;;4910676;29;20075;-76
2022/04/13 07:29:27;;;;;;;34.17;17.48;;;;;;;;;;4912216;29;20059;-75
2022/04/13 07:31:52;;;;;;;36.00;17.45;;;;;;;;;;4915368;29;20044;-76
2022/04/13 07:34:18;;;;;;;35.22;17.17;;;;;;;;;;4912267;29;20048;-76
2022/04/13 07:36:45;;;;;;;37.25;16.88;;;;;;;;;;4912679;29;20139;-80
2022/04/13 07:39:11;;;;;;;31.08;15.50;;;;;;;;;;4912058;29;20420;-76
2022/04/13 07:41:37;;;;;;;25.83;14.32;;;;;;;;;;4914864;29;20086;-79
2022/04/13 07:44:03;;;;;;;30.17;14.05;;;;;;;;;;4917069;29;20048;-77
2022/04/13 07:46:29;;;;;;;28.25;14.23;;;;;;;;;;4891910;29;20425;-78
2022/04/13 07:48:55;;;;;;;32.13;14.50;;;;;;;;;;4910709;29;20064;-73
2022/04/13 07:51:21;;;;;;;26.48;14.60;;;;;;;;;;4915640;29;20044;-76
2022/04/13 07:53:47;;;;;;;26.45;14.15;;;;;;;;;;4910307;29;20154;-77
2022/04/13 07:56:13;;;;;;;29.23;13.10;;;;;;;;;;4912790;29;20119;-76
2022/04/13 07:58:38;;;;;;;27.23;14.07;;;;;;;;;;4907204;29;20116;-75
2022/04/13 08:01:05;;;;;;;23.00;13.75;;;;;;;;;;4912299;29;20107;-76
2022/04/13 08:03:31;;;;;;;27.05;14.80;;;;;;;;;;4914172;29;20051;-76
2022/04/13 08:05:58;;;;;;;25.00;14.57;;;;;;;;;;4915097;29;20052;-77
2022/04/13 08:08:24;;;;;;;32.33;14.30;;;;;;;;;;4915933;29;20502;-78
2022/04/13 08:10:50;;;;;;;26.08;14.32;;;;;;;;;;4912717;29;20052;-78
2022/04/13 08:13:16;;;;;;;29.63;14.27;;;;;;;;;;4913853;29;20119;-78
2022/04/13 08:15:41;;;;;;;24.52;14.00;;;;;;;;;;4913950;29;20063;-80
2022/04/13 08:18:07;;;;;;;28.00;14.35;;;;;;;;;;4913395;29;20055;-75
2022/04/13 08:20:33;;;;;;;27.25;13.60;;;;;;;;;;4913630;29;20040;-79
2022/04/13 08:22:59;;;;;;;29.20;13.30;;;;;;;;;;4910294;29;20063;-77
2022/04/13 08:25:25;;;;;;;30.75;13.18;;;;;;;;;;4913597;29;20099;-76
2022/04/13 08:27:51;;;;;;;25.55;12.73;;;;;;;;;;4910338;29;20151;-78
2022/04/13 08:30:19;;;;;;;27.27;13.40;;;;;;;;;;4911193;29;20044;-79
2022/04/13 08:32:45;;;;;;;25.92;14.10;;;;;;;;;;4910863;29;20660;-79
2022/04/13 08:35:11;;;;;;;25.50;13.30;;;;;;;;;;4894717;29;20135;-79
2022/04/13 08:37:37;;;;;;;25.35;13.20;;;;;;;;;;4909608;29;20044;-78
2022/04/13 08:40:04;;;;;;;21.30;11.93;;;;;;;;;;4913001;29;20501;-77
2022/04/13 08:42:37;;;;;;;22.95;12.65;;;;;;;;;;4911959;29;20058;-78
2022/04/13 08:45:14;;;;;;;28.92;13.07;;;;;;;;;;4913032;29;20044;-76
2022/04/13 08:47:44;;;;;;;22.92;13.45;;;;;;;;;;4911168;29;20387;-76
2022/04/13 08:50:12;;;;;;;24.65;13.77;;;;;;;;;;4910729;29;20420;-78
2022/04/13 08:52:39;;;;;;;30.17;14.90;;;;;;;;;;4912107;29;20064;-75
2022/04/13 08:55:06;;;;;;;26.67;14.07;;;;;;;;;;4913006;29;20048;-78
2022/04/13 08:57:41;;;;;;;27.65;13.77;;;;;;;;;;4894659;29;20055;-78
2022/04/13 09:00:08;;;;;;;;;;;;;;;;;;4915173;29;20529;-77
2022/04/13 09:03:10;;;;;;;28.63;14.57;;;;;;;;;;4896221;29;19929;-77
2022/04/13 09:05:37;;;;;;;28.70;14.30;;;;;;;;;;4905024;29;20052;-78
2022/04/13 09:08:12;;;;;;;30.90;15.75;;;;;;;;;;4913185;29;20048;-78
2022/04/13 09:10:39;;;;;;;24.58;13.32;;;;;;;;;;4913742;29;20078;-76
2022/04/13 09:13:09;;;;;;;29.67;15.70;;;;;;;;;;4915413;29;20067;-78
2022/04/13 09:15:37;;;;;;;29.42;14.45;;;;;;;;;;4913408;29;20127;-77
2022/04/13 09:18:02;;;;;;;21.95;11.65;;;;;;;;;;4912783;29;20060;-79
2022/04/13 09:20:28;;;;;;;21.52;11.65;;;;;;;;;;4922500;29;20063;-75
2022/04/13 09:22:58;;;;;;;22.88;11.38;;;;;;;;;;4924126;29;20050;-76
2022/04/13 09:25:25;;;;;;;20.83;10.23;;;;;;;;;;4919369;29;20148;-77
2022/04/13 09:27:52;;;;;;;24.90;11.63;;;;;;;;;;4912825;29;20597;-78
2022/04/13 09:30:18;;;;;;;23.92;11.32;;;;;;;;;;4895774;29;20071;-76
2022/04/13 09:32:45;;;;;;;16.08;9.80;;;;;;;;;;4913477;29;20466;-77
2022/04/13 09:35:21;;;;;;;19.83;10.52;;;;;;;;;;4918177;29;20146;-77
2022/04/13 09:37:47;;;;;;;25.35;11.30;;;;;;;;;;4920794;29;20048;-76
2022/04/13 09:40:29;;;;;;;19.98;11.23;;;;;;;;;;4918460;29;20075;-79
2022/04/13 09:43:13;;;;;;;19.67;10.52;;;;;;;;;;4915000;29;20398;-77
2022/04/13 09:45:48;;;;;;;16.30;9.67;;;;;;;;;;4914105;29;20096;-70
2022/04/13 09:48:21;;;;;;;17.95;9.70;;;;;;;;;;4908681;29;20337;-74
2022/04/13 09:50:51;;;;;;;17.52;8.93;;;;;;;;;;4908774;29;20064;-74
2022/04/13 09:53:20;;;;;;;11.95;8.07;;;;;;;;;;4907666;29;20055;-77
2022/04/13 09:55:53;;;;;;;12.90;8.50;;;;;;;;;;4911052;29;20158;-80
2022/04/13 09:58:30;;;;;;;14.98;7.88;;;;;;;;;;4912086;29;20052;-76
2022/04/13 10:01:02;;;;;;;13.88;8.15;;;;;;;;;;4914093;29;20052;-77
2022/04/13 10:03:28;;;;;;;13.02;6.60;;;;;;;;;;4914414;29;20092;-77
2022/04/13 10:05:56;;;;;;;13.55;6.60;;;;;;;;;;4916024;29;20159;-74
2022/04/13 10:08:26;;;;;;;12.32;6.32;;;;;;;;;;4911054;29;20044;-73
2022/04/13 10:10:57;;;;;;;7.80;5.28;;;;;;;;;;4909273;29;20540;-73
2022/04/13 10:13:52;;;;;;;11.13;4.90;;;;;;;;;;4919622;29;20044;-73
2022/04/13 10:16:20;;;;;;;10.63;5.40;;;;;;;;;;4885264;29;20477;-71
2022/04/13 10:18:55;;;;;;;7.63;5.30;;;;;;;;;;4914045;29;20076;-74
2022/04/13 10:21:47;;;;;;;11.30;5.60;;;;;;;;;;4906694;29;20059;-72
2022/04/13 10:24:21;;;;;;;11.10;4.00;;;;;;;;;;4898705;29;20088;-75
2022/04/13 10:27:04;;;;;;;7.72;2.85;;;;;;;;;;4910822;29;20056;-76
2022/04/13 10:29:37;;;;;;;5.40;2.17;;;;;;;;;;4899320;29;20254;-76
2022/04/13 10:32:24;;;;;;;5.05;2.10;;;;;;;;;;4915174;29;20074;-76
2022/04/13 10:34:54;;;;;;;3.42;1.60;;;;;;;;;;4912140;29;20055;-76
2022/04/13 10:37:23;;;;;;;6.75;2.00;;;;;;;;;;4916576;29;20078;-74
2022/04/13 10:39:51;;;;;;;5.30;2.40;;;;;;;;;;4917702;29;20052;-75
2022/04/13 10:42:19;;;;;;;4.68;2.40;;;;;;;;;;4913682;29;20060;-75
2022/04/13 10:45:05;;;;;;;5.43;2.78;;;;;;;;;;4923659;29;20361;-75
2022/04/13 10:47:49;;;;;;;7.35;3.60;;;;;;;;;;4923101;29;20043;-77
2022/04/13 10:50:20;;;;;;;6.72;3.20;;;;;;;;;;4914208;29;20506;-74
2022/04/13 10:53:24;;;;;;;6.22;3.45;;;;;;;;;;4915416;29;20040;-74
2022/04/13 10:56:04;;;;;;;9.57;3.60;;;;;;;;;;4868639;29;20049;-74
2022/04/13 10:58:51;;;;;;;7.75;4.03;;;;;;;;;;4871086;29;20047;-78
2022/04/13 11:01:20;;;;;;;6.15;3.70;;;;;;;;;;4870790;29;20053;-76
2022/04/13 11:03:46;;;;;;;6.65;3.78;;;;;;;;;;4867503;29;20064;-75
2022/04/13 11:06:13;;;;;;;7.15;3.88;;;;;;;;;;4868814;29;20145;-75
2022/04/13 11:08:55;;;;;;;14.93;4.05;;;;;;;;;;4866626;29;20128;-76
2022/04/13 11:11:22;;;;;;;7.70;4.22;;;;;;;;;;4865993;29;20511;-73
2022/04/13 11:13:49;;;;;;;12.40;3.78;;;;;;;;;;4869207;29;20155;-75
2022/04/13 11:16:18;;;;;;;5.93;3.00;;;;;;;;;;4864771;29;20037;-74
2022/04/13 11:19:04;;;;;;;7.60;3.58;;;;;;;;;;4876171;29;20586;-74
2022/04/13 11:21:31;;;;;;;7.35;3.80;;;;;;;;;;4862180;29;20503;-74
2022/04/13 11:23:57;;;;;;;6.93;3.50;;;;;;;;;;4869009;29;20136;-75
2022/04/13 11:26:47;;;;;;;8.35;3.70;;;;;;;;;;4888111;29;20040;-74
2022/04/13 11:29:17;;;;;;;10.15;4.07;;;;;;;;;;4897823;29;20040;-75
2022/04/13 11:32:01;;;;;;;7.80;4.40;;;;;;;;;;4924575;23;20071;-70
2022/04/13 11:34:38;;;;;;;9.50;3.65;;;;;;;;;;4928304;29;20051;-69
2022/04/13 11:37:07;;;;;;;5.93;3.08;;;;;;;;;;4932212;29;20122;-70
2022/04/13 11:39:56;;;;;;;5.22;2.97;;;;;;;;;;4932664;29;20110;-70
2022/04/13 11:42:24;;;;;;;6.47;3.30;;;;;;;;;;4934909;29;20079;-70
2022/04/13 11:45:00;;;;;;;9.07;2.90;;;;;;;;;;4935323;29;20544;-71
2022/04/13 11:47:51;;;;;;;7.65;3.00;;;;;;;;;;4927331;29;20058;-69
2022/04/13 11:50:17;;;;;;;7.28;2.63;;;;;;;;;;4931133;29;20055;-68
2022/04/13 11:53:05;;;;;;;6.03;2.63;;;;;;;;;;4929194;29;20114;-71
2022/04/13 11:55:41;;;;;;;5.40;2.53;;;;;;;;;;4931851;29;20054;-72
2022/04/13 11:58:10;;;;;;;4.78;2.67;;;;;;;;;;4924294;29;20531;-73
2022/04/13 12:00:52;;;;;;;6.95;3.00;;;;;;;;;;4936473;29;20566;-72
2022/04/13 12:03:39;;;;;;;5.78;2.75;;;;;;;;;;4928480;29;20071;-73
2022/04/13 12:06:10;;;;;;;8.30;2.72;;;;;;;;;;4930940;29;20111;-74
2022/04/13 12:08:39;;;;;;;5.03;2.00;;;;;;;;;;4930271;29;20139;-72
2022/04/13 12:11:11;;;;;;;7.55;2.65;;;;;;;;;;4929745;29;20055;-70
2022/04/13 12:13:56;;;;;;;5.07;2.65;;;;;;;;;;4912409;29;20056;-73
2022/04/13 12:16:29;;;;;;;4.97;2.20;;;;;;;;;;4935521;29;20488;-71
2022/04/13 12:19:00;;;;;;;4.72;2.40;;;;;;;;;;4922837;29;20138;-71
2022/04/13 12:21:29;;;;;;;4.68;2.47;;;;;;;;;;4928153;29;20052;-73
2022/04/13 12:24:00;;;;;;;6.75;2.60;;;;;;;;;;4930790;29;20052;-71
2022/04/13 12:26:33;;;;;;;5.90;2.00;;;;;;;;;;4928081;29;20114;-72
2022/04/13 12:29:10;;;;;;;7.18;2.70;;;;;;;;;;4923095;29;20062;-72
2022/04/13 12:31:49;;;;;;;6.25;2.80;;;;;;;;;;4938639;29;20513;-73
2022/04/13 12:34:16;;;;;;;5.43;2.63;;;;;;;;;;4910965;29;20144;-72
2022/04/13 12:36:48;;;;;;;4.00;2.53;;;;;;;;;;4932490;29;20051;-71
2022/04/13 12:39:14;;;;;;;5.47;2.33;;;;;;;;;;4929592;29;20118;-71
2022/04/13 12:41:40;;;;;;;6.40;2.38;;;;;;;;;;4935809;29;20453;-72
2022/04/13 12:44:07;;;;;;;7.90;2.03;;;;;;;;;;4930914;29;20616;-72
2022/04/13 12:46:33;;;;;;;5.18;1.95;;;;;;;;;;4927709;29;20513;-72
2022/04/13 12:49:04;;;;;;;5.30;2.17;;;;;;;;;;4932090;29;20135;-73
2022/04/13 12:51:36;;;;;;;6.35;1.40;;;;;;;;;;4932121;29;20090;-69
2022/04/13 12:54:06;;;;;;;4.70;1.77;;;;;;;;;;4930523;29;20527;-72
2022/04/13 12:56:36;;;;;;;3.58;1.40;;;;;;;;;;4933452;29;20052;-72
2022/04/13 12:59:03;;;;;;;4.38;1.48;;;;;;;;;;4932579;29;20051;-71
2022/04/13 13:01:30;;;;;;;4.78;1.40;;;;;;;;;;4935510;29;20043;-70
2022/04/13 13:04:13;;;;;;;3.50;1.70;;;;;;;;;;4929934;29;20044;-71
2022/04/13 13:07:01;;;;;;;6.47;1.50;;;;;;;;;;4924095;29;20054;-72
2022/04/13 13:09:30;;;;;;;4.53;1.63;;;;;;;;;;4914144;29;20397;-73
2022/04/13 13:11:59;;;;;;;5.95;1.55;;;;;;;;;;4930799;29;20099;-69
2022/04/13 13:14:35;;;;;;;8.07;1.98;;;;;;;;;;4931840;29;20246;-71
2022/04/13 13:17:22;;;;;;;5.60;2.30;;;;;;;;;;4934875;29;20505;-73
2022/04/13 13:19:50;;;;;;;9.85;2.47;;;;;;;;;;4936543;29;20526;-69
2022/04/13 13:22:28;;;;;;;4.82;2.15;;;;;;;;;;4929096;29;20078;-70
2022/04/13 13:24:54;;;;;;;6.82;2.53;;;;;;;;;;4928198;29;20058;-71
2022/04/13 13:27:28;;;;;;;5.97;2.60;;;;;;;;;;4929178;29;20048;-73
2022/04/13 13:29:56;;;;;;;6.50;3.03;;;;;;;;;;4896237;29;20054;-71
2022/04/13 13:32:26;;;;;;;6.32;2.88;;;;;;;;;;4930212;29;20078;-70
2022/04/13 13:34:59;;;;;;;7.30;3.10;;;;;;;;;;4930056;29;20524;-73
2022/04/13 13:37:28;;;;;;;11.45;3.20;;;;;;;;;;4932769;29;20062;-71
2022/04/13 13:39:54;;;;;;;5.55;3.08;;;;;;;;;;4928967;29;20044;-72
2022/04/13 13:42:20;;;;;;;3.03;1.60;;;;;;;;;;4932871;29;20318;-71
2022/04/13 13:44:46;;;;;;;1.67;0.93;;;;;;;;;;4932327;29;20123;-71
2022/04/13 13:47:12;;;;;;;1.98;1.63;;;;;;;;;;4934456;29;20086;-70
2022/04/13 13:49:38;;;;;;;5.88;1.10;;;;;;;;;;4929438;29;20055;-70
2022/04/13 13:52:06;;;;;;;2.83;0.90;;;;;;;;;;4927512;29;20440;-71
2022/04/13 13:54:35;;;;;;;2.63;1.20;;;;;;;;;;4930615;29;20043;-70
2022/04/13 13:57:01;;;;;;;4.57;1.00;;;;;;;;;;4929644;29;20058;-70
2022/04/13 13:59:28;;;;;;;2.00;1.00;;;;;;;;;;4931294;29;20048;-70
2022/04/13 14:01:54;;;;;;;3.70;1.08;;;;;;;;;;4931154;29;20341;-71
2022/04/13 14:04:22;;;;;;;2.58;0.90;;;;;;;;;;4929898;29;20055;-71
2022/04/13 14:06:49;;;;;;;1.75;0.70;;;;;;;;;;4932925;29;20044;-73
2022/04/13 14:09:15;;;;;;;1.85;0.80;;;;;;;;;;4928546;29;20048;-71
2022/04/13 14:11:41;;;;;;;5.38;0.90;;;;;;;;;;4929532;29;20107;-69
2022/04/13 14:14:07;;;;;;;2.78;0.95;;;;;;;;;;4931856;29;20051;-69
2022/04/13 14:16:33;;;;;;;5.75;0.93;;;;;;;;;;4928892;29;20123;-72
2022/04/13 14:18:59;;;;;;;3.65;1.67;;;;;;;;;;4931090;29;20135;-68
2022/04/13 14:21:36;;;;;;;3.05;1.02;;;;;;;;;;4935417;29;20053;-70
2022/04/13 14:24:03;;;;;;;1.60;1.00;;;;;;;;;;4931390;29;20050;-71
2022/04/13 14:26:30;;;;;;;2.10;0.90;;;;;;;;;;4933701;29;20055;-72
2022/04/13 14:28:58;;;;;;;4.25;0.90;;;;;;;;;;4933020;29;20497;-70
2022/04/13 14:31:31;;;;;;;1.08;0.73;;;;;;;;;;4931947;29;20055;-70
2022/04/13 14:33:58;;;;;;;1.70;1.05;;;;;;;;;;4933896;29;20062;-71
2022/04/13 14:36:25;;;;;;;2.53;1.17;;;;;;;;;;4933230;29;20127;-69
2022/04/13 14:38:51;;;;;;;2.90;1.10;;;;;;;;;;4931345;29;20068;-72